sensor_id;sensor_type;location;lat;lon;timestamp;P1;durP1;ratioP1;P2;durP2;ratioP2
76631;SDS011;65526;48.578;-4.520;2023-04-24T00:01:04;3.53;;;2.17;;
76631;SDS011;65526;48.578;-4.520;2023-04-24T00:03:33;6.43;;;2.42;;
76631;SDS011;65526;48.578;-4.520;2023-04-24T00:05:59;2.40;;;2.13;;
76631;SDS011;65526;48.578;-4.520;2023-04-24T00:08:26;4.50;;;2.67;;
76631;SDS011;65526;48.578;-4.520;2023-04-24T00:10:53;6.82;;;2.35;;
76631;SDS011;65526;48.578;-4.520;2023-04-24T00:13:19;3.67;;;2.13;;
76631;SDS011;65526;48.578;-4.520;2023-04-24T00:15:45;5.80;;;2.33;;
76631;SDS011;65526;48.578;-4.520;2023-04-24T00:18:12;3.20;;;2.15;;
76631;SDS011;65526;48.578;-4.520;2023-04-24T00:20:38;6.07;;;2.60;;
76631;SDS011;65526;48.578;-4.520;2023-04-24T00:23:05;4.72;;;2.42;;
76631;SDS011;65526;48.578;-4.520;2023-04-24T00:25:32;4.90;;;2.30;;
76631;SDS011;65526;48.578;-4.520;2023-04-24T00:27:58;4.07;;;2.30;;
76631;SDS011;65526;48.578;-4.520;2023-04-24T00:30:24;4.03;;;2.10;;
76631;SDS011;65526;48.578;-4.520;2023-04-24T00:32:51;6.00;;;2.20;;
76631;SDS011;65526;48.578;-4.520;2023-04-24T00:35:17;3.65;;;2.17;;
76631;SDS011;65526;48.578;-4.520;2023-04-24T00:37:45;4.22;;;2.40;;
76631;SDS011;65526;48.578;-4.520;2023-04-24T00:40:12;5.47;;;2.15;;
76631;SDS011;65526;48.578;-4.520;2023-04-24T00:42:39;5.20;;;2.38;;
76631;SDS011;65526;48.578;-4.520;2023-04-24T00:45:06;4.07;;;2.63;;
76631;SDS011;65526;48.578;-4.520;2023-04-24T00:47:33;6.25;;;2.60;;
76631;SDS011;65526;48.578;-4.520;2023-04-24T00:50:03;6.50;;;2.78;;
76631;SDS011;65526;48.578;-4.520;2023-04-24T00:52:31;3.97;;;2.40;;
76631;SDS011;65526;48.578;-4.520;2023-04-24T00:55:06;4.82;;;2.50;;
76631;SDS011;65526;48.578;-4.520;2023-04-24T00:57:33;5.72;;;2.67;;
76631;SDS011;65526;48.578;-4.520;2023-04-24T01:00:00;5.80;;;2.95;;
76631;SDS011;65526;48.578;-4.520;2023-04-24T01:02:26;5.85;;;3.20;;
76631;SDS011;65526;48.578;-4.520;2023-04-24T01:04:53;4.18;;;2.40;;
76631;SDS011;65526;48.578;-4.520;2023-04-24T01:07:20;5.32;;;2.85;;
76631;SDS011;65526;48.578;-4.520;2023-04-24T01:09:46;5.18;;;2.70;;
76631;SDS011;65526;48.578;-4.520;2023-04-24T01:12:15;6.97;;;2.33;;
76631;SDS011;65526;48.578;-4.520;2023-04-24T01:14:43;4.85;;;2.60;;
76631;SDS011;65526;48.578;-4.520;2023-04-24T01:17:10;6.00;;;2.53;;
76631;SDS011;65526;48.578;-4.520;2023-04-24T01:19:37;4.32;;;2.58;;
76631;SDS011;65526;48.578;-4.520;2023-04-24T01:22:08;8.68;;;2.80;;
76631;SDS011;65526;48.578;-4.520;2023-04-24T01:24:36;6.25;;;2.88;;
76631;SDS011;65526;48.578;-4.520;2023-04-24T01:27:04;6.57;;;2.47;;
76631;SDS011;65526;48.578;-4.520;2023-04-24T01:29:30;4.45;;;2.50;;
76631;SDS011;65526;48.578;-4.520;2023-04-24T01:31:57;4.50;;;2.10;;
76631;SDS011;65526;48.578;-4.520;2023-04-24T01:34:24;4.90;;;2.08;;
76631;SDS011;65526;48.578;-4.520;2023-04-24T01:36:51;8.77;;;2.58;;
76631;SDS011;65526;48.578;-4.520;2023-04-24T01:39:17;6.25;;;2.47;;
76631;SDS011;65526;48.578;-4.520;2023-04-24T01:41:46;10.50;;;2.75;;
76631;SDS011;65526;48.578;-4.520;2023-04-24T01:44:12;6.15;;;2.92;;
76631;SDS011;65526;48.578;-4.520;2023-04-24T01:46:40;5.43;;;2.63;;
76631;SDS011;65526;48.578;-4.520;2023-04-24T01:49:07;5.35;;;2.33;;
76631;SDS011;65526;48.578;-4.520;2023-04-24T01:51:33;7.93;;;2.75;;
76631;SDS011;65526;48.578;-4.520;2023-04-24T01:54:00;7.90;;;2.65;;
76631;SDS011;65526;48.578;-4.520;2023-04-24T01:56:27;8.73;;;3.00;;
76631;SDS011;65526;48.578;-4.520;2023-04-24T01:58:55;9.35;;;3.30;;
76631;SDS011;65526;48.578;-4.520;2023-04-24T02:01:23;4.35;;;2.65;;
76631;SDS011;65526;48.578;-4.520;2023-04-24T02:03:50;7.28;;;3.28;;
76631;SDS011;65526;48.578;-4.520;2023-04-24T02:06:17;7.53;;;2.90;;
76631;SDS011;65526;48.578;-4.520;2023-04-24T02:08:44;6.65;;;3.15;;
76631;SDS011;65526;48.578;-4.520;2023-04-24T02:11:10;10.20;;;3.50;;
76631;SDS011;65526;48.578;-4.520;2023-04-24T02:13:37;8.43;;;3.70;;
76631;SDS011;65526;48.578;-4.520;2023-04-24T02:16:03;11.27;;;3.88;;
76631;SDS011;65526;48.578;-4.520;2023-04-24T02:18:30;11.38;;;3.15;;
76631;SDS011;65526;48.578;-4.520;2023-04-24T02:20:56;10.68;;;2.45;;
76631;SDS011;65526;48.578;-4.520;2023-04-24T02:23:23;10.05;;;3.17;;
76631;SDS011;65526;48.578;-4.520;2023-04-24T02:25:49;9.10;;;2.60;;
76631;SDS011;65526;48.578;-4.520;2023-04-24T02:28:17;13.18;;;3.47;;
76631;SDS011;65526;48.578;-4.520;2023-04-24T02:30:43;13.57;;;3.78;;
76631;SDS011;65526;48.578;-4.520;2023-04-24T02:33:09;12.25;;;3.53;;
76631;SDS011;65526;48.578;-4.520;2023-04-24T02:35:37;8.05;;;3.03;;
76631;SDS011;65526;48.578;-4.520;2023-04-24T02:38:04;11.38;;;2.92;;
76631;SDS011;65526;48.578;-4.520;2023-04-24T02:40:30;6.10;;;2.63;;
76631;SDS011;65526;48.578;-4.520;2023-04-24T02:42:57;8.88;;;2.75;;
76631;SDS011;65526;48.578;-4.520;2023-04-24T02:45:24;9.82;;;3.20;;
76631;SDS011;65526;48.578;-4.520;2023-04-24T02:47:50;14.63;;;2.92;;
76631;SDS011;65526;48.578;-4.520;2023-04-24T02:50:17;14.82;;;3.22;;
76631;SDS011;65526;48.578;-4.520;2023-04-24T02:52:43;12.98;;;3.58;;
76631;SDS011;65526;48.578;-4.520;2023-04-24T02:55:10;10.85;;;2.80;;
76631;SDS011;65526;48.578;-4.520;2023-04-24T02:57:37;9.88;;;2.65;;
76631;SDS011;65526;48.578;-4.520;2023-04-24T03:00:03;8.98;;;2.58;;
76631;SDS011;65526;48.578;-4.520;2023-04-24T03:04:59;13.07;;;3.63;;
76631;SDS011;65526;48.578;-4.520;2023-04-24T03:07:26;11.20;;;3.10;;
76631;SDS011;65526;48.578;-4.520;2023-04-24T03:09:52;9.73;;;3.13;;
76631;SDS011;65526;48.578;-4.520;2023-04-24T03:12:19;9.30;;;2.97;;
76631;SDS011;65526;48.578;-4.520;2023-04-24T03:14:45;8.27;;;2.72;;
76631;SDS011;65526;48.578;-4.520;2023-04-24T03:17:12;9.48;;;3.03;;
76631;SDS011;65526;48.578;-4.520;2023-04-24T03:19:39;11.05;;;3.60;;
76631;SDS011;65526;48.578;-4.520;2023-04-24T03:22:09;9.65;;;3.13;;
76631;SDS011;65526;48.578;-4.520;2023-04-24T03:24:36;10.13;;;4.47;;
76631;SDS011;65526;48.578;-4.520;2023-04-24T03:27:03;12.18;;;3.53;;
76631;SDS011;65526;48.578;-4.520;2023-04-24T03:29:52;10.82;;;3.35;;
76631;SDS011;65526;48.578;-4.520;2023-04-24T03:32:26;9.48;;;2.85;;
76631;SDS011;65526;48.578;-4.520;2023-04-24T03:34:53;9.48;;;3.25;;
76631;SDS011;65526;48.578;-4.520;2023-04-24T03:37:20;12.60;;;3.20;;
76631;SDS011;65526;48.578;-4.520;2023-04-24T03:39:55;8.27;;;3.05;;
76631;SDS011;65526;48.578;-4.520;2023-04-24T03:42:24;7.57;;;3.50;;
76631;SDS011;65526;48.578;-4.520;2023-04-24T03:44:54;11.95;;;3.38;;
76631;SDS011;65526;48.578;-4.520;2023-04-24T03:47:24;7.88;;;2.95;;
76631;SDS011;65526;48.578;-4.520;2023-04-24T03:49:53;9.95;;;2.90;;
76631;SDS011;65526;48.578;-4.520;2023-04-24T03:52:21;9.70;;;3.25;;
76631;SDS011;65526;48.578;-4.520;2023-04-24T03:54:48;18.13;;;3.35;;
76631;SDS011;65526;48.578;-4.520;2023-04-24T03:57:15;11.13;;;2.80;;
76631;SDS011;65526;48.578;-4.520;2023-04-24T03:59:52;8.50;;;3.30;;
76631;SDS011;65526;48.578;-4.520;2023-04-24T04:02:19;12.15;;;3.25;;
76631;SDS011;65526;48.578;-4.520;2023-04-24T04:04:46;11.55;;;2.88;;
76631;SDS011;65526;48.578;-4.520;2023-04-24T04:07:13;4.90;;;2.83;;
76631;SDS011;65526;48.578;-4.520;2023-04-24T04:09:41;4.88;;;2.53;;
76631;SDS011;65526;48.578;-4.520;2023-04-24T04:12:07;6.85;;;2.60;;
76631;SDS011;65526;48.578;-4.520;2023-04-24T04:14:34;10.30;;;2.63;;
76631;SDS011;65526;48.578;-4.520;2023-04-24T04:17:01;11.20;;;3.00;;
76631;SDS011;65526;48.578;-4.520;2023-04-24T04:19:28;10.73;;;3.30;;
76631;SDS011;65526;48.578;-4.520;2023-04-24T04:21:55;10.68;;;2.80;;
76631;SDS011;65526;48.578;-4.520;2023-04-24T04:24:44;7.35;;;2.60;;
76631;SDS011;65526;48.578;-4.520;2023-04-24T04:27:12;8.60;;;3.45;;
76631;SDS011;65526;48.578;-4.520;2023-04-24T04:29:47;9.82;;;1.90;;
76631;SDS011;65526;48.578;-4.520;2023-04-24T04:32:15;7.43;;;3.00;;
76631;SDS011;65526;48.578;-4.520;2023-04-24T04:34:42;9.85;;;3.35;;
76631;SDS011;65526;48.578;-4.520;2023-04-24T04:37:11;9.05;;;3.35;;
76631;SDS011;65526;48.578;-4.520;2023-04-24T04:39:45;10.07;;;3.20;;
76631;SDS011;65526;48.578;-4.520;2023-04-24T04:42:17;9.65;;;3.08;;
76631;SDS011;65526;48.578;-4.520;2023-04-24T04:44:44;6.18;;;3.08;;
76631;SDS011;65526;48.578;-4.520;2023-04-24T04:47:16;12.13;;;3.13;;
76631;SDS011;65526;48.578;-4.520;2023-04-24T04:49:44;11.68;;;3.38;;
76631;SDS011;65526;48.578;-4.520;2023-04-24T04:52:18;9.30;;;2.97;;
76631;SDS011;65526;48.578;-4.520;2023-04-24T04:54:48;11.73;;;2.95;;
76631;SDS011;65526;48.578;-4.520;2023-04-24T04:57:15;13.55;;;3.30;;
76631;SDS011;65526;48.578;-4.520;2023-04-24T04:59:41;5.85;;;2.60;;
76631;SDS011;65526;48.578;-4.520;2023-04-24T05:02:13;9.60;;;3.30;;
76631;SDS011;65526;48.578;-4.520;2023-04-24T05:04:40;5.75;;;2.80;;
76631;SDS011;65526;48.578;-4.520;2023-04-24T05:07:06;8.30;;;2.85;;
76631;SDS011;65526;48.578;-4.520;2023-04-24T05:09:37;10.27;;;3.25;;
76631;SDS011;65526;48.578;-4.520;2023-04-24T05:12:05;5.22;;;2.83;;
76631;SDS011;65526;48.578;-4.520;2023-04-24T05:14:36;7.55;;;2.92;;
76631;SDS011;65526;48.578;-4.520;2023-04-24T05:17:03;8.45;;;3.45;;
76631;SDS011;65526;48.578;-4.520;2023-04-24T05:19:30;5.72;;;2.97;;
76631;SDS011;65526;48.578;-4.520;2023-04-24T05:21:59;12.25;;;3.00;;
76631;SDS011;65526;48.578;-4.520;2023-04-24T05:24:29;8.52;;;3.33;;
76631;SDS011;65526;48.578;-4.520;2023-04-24T05:27:15;8.95;;;2.75;;
76631;SDS011;65526;48.578;-4.520;2023-04-24T05:29:42;8.27;;;2.50;;
76631;SDS011;65526;48.578;-4.520;2023-04-24T05:32:09;9.52;;;3.08;;
76631;SDS011;65526;48.578;-4.520;2023-04-24T05:34:36;7.13;;;3.47;;
76631;SDS011;65526;48.578;-4.520;2023-04-24T05:37:02;10.52;;;3.45;;
76631;SDS011;65526;48.578;-4.520;2023-04-24T05:39:34;6.10;;;2.72;;
76631;SDS011;65526;48.578;-4.520;2023-04-24T05:42:01;11.98;;;3.22;;
76631;SDS011;65526;48.578;-4.520;2023-04-24T05:44:29;9.45;;;2.55;;
76631;SDS011;65526;48.578;-4.520;2023-04-24T05:46:55;13.70;;;3.70;;
76631;SDS011;65526;48.578;-4.520;2023-04-24T05:49:22;7.78;;;2.85;;
76631;SDS011;65526;48.578;-4.520;2023-04-24T05:51:49;6.90;;;3.05;;
76631;SDS011;65526;48.578;-4.520;2023-04-24T05:54:17;12.15;;;3.35;;
76631;SDS011;65526;48.578;-4.520;2023-04-24T05:56:43;12.63;;;4.18;;
76631;SDS011;65526;48.578;-4.520;2023-04-24T05:59:13;9.15;;;3.42;;
76631;SDS011;65526;48.578;-4.520;2023-04-24T06:01:39;7.65;;;3.42;;
76631;SDS011;65526;48.578;-4.520;2023-04-24T06:04:13;9.07;;;3.97;;
76631;SDS011;65526;48.578;-4.520;2023-04-24T06:06:39;7.68;;;3.30;;
76631;SDS011;65526;48.578;-4.520;2023-04-24T06:09:06;11.45;;;3.65;;
76631;SDS011;65526;48.578;-4.520;2023-04-24T06:11:33;8.00;;;3.22;;
76631;SDS011;65526;48.578;-4.520;2023-04-24T06:14:00;18.10;;;3.67;;
76631;SDS011;65526;48.578;-4.520;2023-04-24T06:16:42;8.13;;;2.90;;
76631;SDS011;65526;48.578;-4.520;2023-04-24T06:19:28;11.98;;;3.22;;
76631;SDS011;65526;48.578;-4.520;2023-04-24T06:21:55;12.13;;;3.40;;
76631;SDS011;65526;48.578;-4.520;2023-04-24T06:24:21;17.15;;;3.58;;
76631;SDS011;65526;48.578;-4.520;2023-04-24T06:26:48;15.60;;;3.72;;
76631;SDS011;65526;48.578;-4.520;2023-04-24T06:29:14;10.35;;;3.33;;
76631;SDS011;65526;48.578;-4.520;2023-04-24T06:31:40;9.15;;;3.10;;
76631;SDS011;65526;48.578;-4.520;2023-04-24T06:34:07;12.43;;;2.90;;
76631;SDS011;65526;48.578;-4.520;2023-04-24T06:36:33;10.45;;;3.00;;
76631;SDS011;65526;48.578;-4.520;2023-04-24T06:39:01;5.68;;;3.20;;
76631;SDS011;65526;48.578;-4.520;2023-04-24T06:41:28;10.77;;;3.70;;
76631;SDS011;65526;48.578;-4.520;2023-04-24T06:43:55;8.50;;;3.35;;
76631;SDS011;65526;48.578;-4.520;2023-04-24T06:46:21;8.30;;;3.22;;
76631;SDS011;65526;48.578;-4.520;2023-04-24T06:48:52;6.63;;;3.33;;
76631;SDS011;65526;48.578;-4.520;2023-04-24T06:51:24;7.68;;;3.17;;
76631;SDS011;65526;48.578;-4.520;2023-04-24T06:53:52;10.05;;;3.75;;
76631;SDS011;65526;48.578;-4.520;2023-04-24T06:56:19;12.85;;;3.70;;
76631;SDS011;65526;48.578;-4.520;2023-04-24T06:58:46;8.73;;;3.35;;
76631;SDS011;65526;48.578;-4.520;2023-04-24T07:01:12;11.38;;;4.15;;
76631;SDS011;65526;48.578;-4.520;2023-04-24T07:03:39;8.63;;;4.47;;
76631;SDS011;65526;48.578;-4.520;2023-04-24T07:06:05;10.30;;;3.85;;
76631;SDS011;65526;48.578;-4.520;2023-04-24T07:08:32;10.05;;;3.08;;
76631;SDS011;65526;48.578;-4.520;2023-04-24T07:11:04;11.32;;;3.45;;
76631;SDS011;65526;48.578;-4.520;2023-04-24T07:13:31;17.45;;;3.78;;
76631;SDS011;65526;48.578;-4.520;2023-04-24T07:15:57;13.73;;;4.30;;
76631;SDS011;65526;48.578;-4.520;2023-04-24T07:18:24;10.68;;;3.47;;
76631;SDS011;65526;48.578;-4.520;2023-04-24T07:20:50;12.27;;;3.50;;
76631;SDS011;65526;48.578;-4.520;2023-04-24T07:23:17;12.98;;;3.47;;
76631;SDS011;65526;48.578;-4.520;2023-04-24T07:25:45;12.07;;;3.47;;
76631;SDS011;65526;48.578;-4.520;2023-04-24T07:28:12;9.15;;;3.35;;
76631;SDS011;65526;48.578;-4.520;2023-04-24T07:30:39;10.07;;;4.22;;
76631;SDS011;65526;48.578;-4.520;2023-04-24T07:33:05;12.85;;;3.53;;
76631;SDS011;65526;48.578;-4.520;2023-04-24T07:35:32;10.55;;;3.00;;
76631;SDS011;65526;48.578;-4.520;2023-04-24T07:38:02;16.50;;;3.60;;
76631;SDS011;65526;48.578;-4.520;2023-04-24T07:40:29;12.98;;;3.78;;
76631;SDS011;65526;48.578;-4.520;2023-04-24T07:42:55;11.70;;;3.35;;
76631;SDS011;65526;48.578;-4.520;2023-04-24T07:45:22;8.75;;;3.45;;
76631;SDS011;65526;48.578;-4.520;2023-04-24T07:47:50;11.20;;;3.28;;
76631;SDS011;65526;48.578;-4.520;2023-04-24T07:50:16;18.17;;;3.45;;
76631;SDS011;65526;48.578;-4.520;2023-04-24T07:52:43;11.00;;;2.83;;
76631;SDS011;65526;48.578;-4.520;2023-04-24T07:55:12;14.00;;;3.03;;
76631;SDS011;65526;48.578;-4.520;2023-04-24T07:57:39;19.08;;;4.22;;
76631;SDS011;65526;48.578;-4.520;2023-04-24T08:00:06;16.75;;;3.80;;
76631;SDS011;65526;48.578;-4.520;2023-04-24T08:02:37;18.90;;;2.90;;
76631;SDS011;65526;48.578;-4.520;2023-04-24T08:05:04;19.65;;;3.30;;
76631;SDS011;65526;48.578;-4.520;2023-04-24T08:07:31;11.95;;;2.75;;
76631;SDS011;65526;48.578;-4.520;2023-04-24T08:09:57;15.45;;;3.25;;
76631;SDS011;65526;48.578;-4.520;2023-04-24T08:12:25;16.85;;;3.67;;
76631;SDS011;65526;48.578;-4.520;2023-04-24T08:14:51;14.15;;;3.13;;
76631;SDS011;65526;48.578;-4.520;2023-04-24T08:17:17;13.68;;;2.88;;
76631;SDS011;65526;48.578;-4.520;2023-04-24T08:19:44;19.40;;;4.22;;
76631;SDS011;65526;48.578;-4.520;2023-04-24T08:22:14;13.05;;;2.78;;
76631;SDS011;65526;48.578;-4.520;2023-04-24T08:24:41;12.77;;;2.47;;
76631;SDS011;65526;48.578;-4.520;2023-04-24T08:27:08;14.10;;;4.13;;
76631;SDS011;65526;48.578;-4.520;2023-04-24T08:29:34;16.15;;;2.80;;
76631;SDS011;65526;48.578;-4.520;2023-04-24T08:32:01;13.02;;;2.80;;
76631;SDS011;65526;48.578;-4.520;2023-04-24T08:34:27;20.50;;;3.63;;
76631;SDS011;65526;48.578;-4.520;2023-04-24T08:36:53;16.00;;;3.45;;
76631;SDS011;65526;48.578;-4.520;2023-04-24T08:39:20;11.68;;;2.63;;
76631;SDS011;65526;48.578;-4.520;2023-04-24T08:41:46;15.68;;;3.40;;
76631;SDS011;65526;48.578;-4.520;2023-04-24T08:44:14;11.07;;;3.25;;
76631;SDS011;65526;48.578;-4.520;2023-04-24T08:46:45;19.67;;;4.50;;
76631;SDS011;65526;48.578;-4.520;2023-04-24T08:49:14;14.45;;;3.38;;
76631;SDS011;65526;48.578;-4.520;2023-04-24T08:51:44;12.35;;;2.53;;
76631;SDS011;65526;48.578;-4.520;2023-04-24T08:54:12;12.20;;;2.28;;
76631;SDS011;65526;48.578;-4.520;2023-04-24T08:56:40;16.00;;;2.80;;
76631;SDS011;65526;48.578;-4.520;2023-04-24T08:59:09;10.20;;;3.20;;
76631;SDS011;65526;48.578;-4.520;2023-04-24T09:01:36;10.57;;;3.10;;
76631;SDS011;65526;48.578;-4.520;2023-04-24T09:04:05;15.10;;;2.72;;
76631;SDS011;65526;48.578;-4.520;2023-04-24T09:06:33;11.25;;;2.95;;
76631;SDS011;65526;48.578;-4.520;2023-04-24T09:09:00;15.13;;;3.17;;
76631;SDS011;65526;48.578;-4.520;2023-04-24T09:11:27;16.33;;;2.90;;
76631;SDS011;65526;48.578;-4.520;2023-04-24T09:13:56;15.73;;;3.50;;
76631;SDS011;65526;48.578;-4.520;2023-04-24T09:16:24;13.10;;;3.10;;
76631;SDS011;65526;48.578;-4.520;2023-04-24T09:18:52;8.32;;;2.60;;
76631;SDS011;65526;48.578;-4.520;2023-04-24T09:21:20;10.35;;;3.20;;
76631;SDS011;65526;48.578;-4.520;2023-04-24T09:23:57;12.02;;;3.55;;
76631;SDS011;65526;48.578;-4.520;2023-04-24T09:26:32;7.75;;;3.08;;
76631;SDS011;65526;48.578;-4.520;2023-04-24T09:29:01;10.63;;;2.65;;
76631;SDS011;65526;48.578;-4.520;2023-04-24T09:31:28;13.55;;;2.85;;
76631;SDS011;65526;48.578;-4.520;2023-04-24T09:33:59;8.98;;;2.13;;
76631;SDS011;65526;48.578;-4.520;2023-04-24T09:36:29;16.88;;;2.85;;
76631;SDS011;65526;48.578;-4.520;2023-04-24T09:39:04;10.15;;;2.45;;
76631;SDS011;65526;48.578;-4.520;2023-04-24T09:41:34;8.82;;;2.47;;
76631;SDS011;65526;48.578;-4.520;2023-04-24T09:44:13;11.43;;;2.67;;
76631;SDS011;65526;48.578;-4.520;2023-04-24T09:46:42;9.10;;;2.63;;
76631;SDS011;65526;48.578;-4.520;2023-04-24T09:49:10;12.73;;;2.45;;
76631;SDS011;65526;48.578;-4.520;2023-04-24T09:51:43;7.75;;;2.35;;
76631;SDS011;65526;48.578;-4.520;2023-04-24T09:54:13;8.65;;;1.85;;
76631;SDS011;65526;48.578;-4.520;2023-04-24T09:56:44;5.32;;;1.83;;
76631;SDS011;65526;48.578;-4.520;2023-04-24T09:59:13;7.80;;;2.00;;
76631;SDS011;65526;48.578;-4.520;2023-04-24T10:01:40;9.73;;;2.38;;
76631;SDS011;65526;48.578;-4.520;2023-04-24T10:04:19;11.02;;;3.20;;
76631;SDS011;65526;48.578;-4.520;2023-04-24T10:06:47;10.98;;;3.25;;
76631;SDS011;65526;48.578;-4.520;2023-04-24T10:09:15;12.10;;;2.08;;
76631;SDS011;65526;48.578;-4.520;2023-04-24T10:11:46;7.90;;;1.73;;
76631;SDS011;65526;48.578;-4.520;2023-04-24T10:14:15;9.05;;;2.30;;
76631;SDS011;65526;48.578;-4.520;2023-04-24T10:16:43;12.55;;;2.50;;
76631;SDS011;65526;48.578;-4.520;2023-04-24T10:19:13;13.23;;;2.50;;
76631;SDS011;65526;48.578;-4.520;2023-04-24T10:21:41;6.93;;;2.38;;
76631;SDS011;65526;48.578;-4.520;2023-04-24T10:24:16;10.05;;;3.28;;
76631;SDS011;65526;48.578;-4.520;2023-04-24T10:26:44;14.40;;;3.95;;
76631;SDS011;65526;48.578;-4.520;2023-04-24T10:29:12;18.30;;;3.58;;
76631;SDS011;65526;48.578;-4.520;2023-04-24T10:31:41;11.55;;;2.75;;
76631;SDS011;65526;48.578;-4.520;2023-04-24T10:34:08;9.05;;;3.40;;
76631;SDS011;65526;48.578;-4.520;2023-04-24T10:36:36;11.00;;;2.63;;
76631;SDS011;65526;48.578;-4.520;2023-04-24T10:39:07;14.52;;;3.30;;
76631;SDS011;65526;48.578;-4.520;2023-04-24T10:41:37;11.60;;;2.90;;
76631;SDS011;65526;48.578;-4.520;2023-04-24T10:44:05;9.57;;;2.70;;
76631;SDS011;65526;48.578;-4.520;2023-04-24T10:46:33;13.50;;;2.53;;
76631;SDS011;65526;48.578;-4.520;2023-04-24T10:49:03;16.77;;;3.08;;
76631;SDS011;65526;48.578;-4.520;2023-04-24T11:02:42;7.65;;;2.50;;
76631;SDS011;65526;48.578;-4.520;2023-04-24T11:05:15;14.90;;;2.78;;
76631;SDS011;65526;48.578;-4.520;2023-04-24T11:10:46;13.65;;;2.58;;
76631;SDS011;65526;48.578;-4.520;2023-04-24T11:13:16;13.00;;;2.80;;
76631;SDS011;65526;48.578;-4.520;2023-04-24T11:16:06;9.60;;;2.47;;
76631;SDS011;65526;48.578;-4.520;2023-04-24T11:18:52;7.82;;;2.00;;
76631;SDS011;65526;48.578;-4.520;2023-04-24T11:21:28;9.10;;;2.70;;
76631;SDS011;65526;48.578;-4.520;2023-04-24T11:26:58;15.82;;;2.88;;
76631;SDS011;65526;48.578;-4.520;2023-04-24T11:29:40;9.52;;;3.25;;
76631;SDS011;65526;48.578;-4.520;2023-04-24T11:34:57;15.30;;;2.85;;
76631;SDS011;65526;48.578;-4.520;2023-04-24T11:37:33;14.23;;;2.72;;
76631;SDS011;65526;48.578;-4.520;2023-04-24T11:39:59;11.75;;;2.42;;
76631;SDS011;65526;48.578;-4.520;2023-04-24T11:42:26;13.88;;;2.42;;
76631;SDS011;65526;48.578;-4.520;2023-04-24T11:44:54;13.15;;;2.53;;
76631;SDS011;65526;48.578;-4.520;2023-04-24T11:47:30;13.10;;;2.88;;
76631;SDS011;65526;48.578;-4.520;2023-04-24T11:49:59;10.35;;;2.50;;
76631;SDS011;65526;48.578;-4.520;2023-04-24T11:52:27;11.07;;;2.58;;
76631;SDS011;65526;48.578;-4.520;2023-04-24T11:54:53;10.25;;;2.38;;
76631;SDS011;65526;48.578;-4.520;2023-04-24T11:57:20;12.48;;;2.63;;
76631;SDS011;65526;48.578;-4.520;2023-04-24T11:59:52;12.38;;;2.33;;
76631;SDS011;65526;48.578;-4.520;2023-04-24T12:02:25;6.40;;;2.28;;
76631;SDS011;65526;48.578;-4.520;2023-04-24T12:04:53;9.85;;;1.98;;
76631;SDS011;65526;48.578;-4.520;2023-04-24T12:07:20;13.27;;;2.10;;
76631;SDS011;65526;48.578;-4.520;2023-04-24T12:09:48;8.65;;;1.90;;
76631;SDS011;65526;48.578;-4.520;2023-04-24T12:12:20;5.25;;;1.50;;
76631;SDS011;65526;48.578;-4.520;2023-04-24T12:14:55;13.20;;;1.75;;
76631;SDS011;65526;48.578;-4.520;2023-04-24T12:17:29;13.88;;;1.90;;
76631;SDS011;65526;48.578;-4.520;2023-04-24T12:19:57;8.95;;;1.80;;
76631;SDS011;65526;48.578;-4.520;2023-04-24T12:22:28;8.40;;;2.20;;
76631;SDS011;65526;48.578;-4.520;2023-04-24T12:25:28;9.82;;;2.20;;
76631;SDS011;65526;48.578;-4.520;2023-04-24T12:28:17;7.57;;;2.05;;
76631;SDS011;65526;48.578;-4.520;2023-04-24T12:30:43;7.68;;;1.70;;
76631;SDS011;65526;48.578;-4.520;2023-04-24T12:33:17;8.20;;;2.90;;
76631;SDS011;65526;48.578;-4.520;2023-04-24T12:35:45;13.68;;;2.83;;
76631;SDS011;65526;48.578;-4.520;2023-04-24T12:38:15;14.80;;;2.42;;
76631;SDS011;65526;48.578;-4.520;2023-04-24T12:40:41;11.45;;;2.45;;
76631;SDS011;65526;48.578;-4.520;2023-04-24T12:43:15;10.45;;;2.35;;
76631;SDS011;65526;48.578;-4.520;2023-04-24T12:45:45;8.00;;;1.70;;
76631;SDS011;65526;48.578;-4.520;2023-04-24T12:48:13;6.55;;;2.22;;
76631;SDS011;65526;48.578;-4.520;2023-04-24T12:50:42;10.10;;;1.80;;
76631;SDS011;65526;48.578;-4.520;2023-04-24T12:53:10;7.60;;;2.22;;
76631;SDS011;65526;48.578;-4.520;2023-04-24T12:55:36;12.05;;;2.13;;
76631;SDS011;65526;48.578;-4.520;2023-04-24T12:58:03;13.18;;;2.47;;
76631;SDS011;65526;48.578;-4.520;2023-04-24T13:00:29;11.48;;;2.35;;
76631;SDS011;65526;48.578;-4.520;2023-04-24T13:02:55;11.73;;;3.03;;
76631;SDS011;65526;48.578;-4.520;2023-04-24T13:05:22;10.23;;;2.30;;
76631;SDS011;65526;48.578;-4.520;2023-04-24T13:07:48;9.07;;;2.80;;
76631;SDS011;65526;48.578;-4.520;2023-04-24T13:10:14;12.13;;;2.45;;
76631;SDS011;65526;48.578;-4.520;2023-04-24T13:12:41;12.85;;;2.05;;
76631;SDS011;65526;48.578;-4.520;2023-04-24T13:15:11;10.73;;;2.58;;
76631;SDS011;65526;48.578;-4.520;2023-04-24T13:17:39;10.63;;;1.98;;
76631;SDS011;65526;48.578;-4.520;2023-04-24T13:20:05;11.77;;;2.42;;
76631;SDS011;65526;48.578;-4.520;2023-04-24T13:22:32;7.20;;;1.48;;
76631;SDS011;65526;48.578;-4.520;2023-04-24T13:24:58;5.20;;;1.67;;
76631;SDS011;65526;48.578;-4.520;2023-04-24T13:27:25;13.45;;;3.03;;
76631;SDS011;65526;48.578;-4.520;2023-04-24T13:29:51;6.95;;;1.77;;
76631;SDS011;65526;48.578;-4.520;2023-04-24T13:32:18;5.82;;;1.70;;
76631;SDS011;65526;48.578;-4.520;2023-04-24T13:34:44;4.50;;;1.30;;
76631;SDS011;65526;48.578;-4.520;2023-04-24T13:37:10;8.73;;;1.77;;
76631;SDS011;65526;48.578;-4.520;2023-04-24T13:39:37;5.53;;;1.40;;
76631;SDS011;65526;48.578;-4.520;2023-04-24T13:42:03;7.53;;;1.40;;
76631;SDS011;65526;48.578;-4.520;2023-04-24T13:44:30;3.10;;;1.13;;
76631;SDS011;65526;48.578;-4.520;2023-04-24T13:46:57;8.68;;;1.63;;
76631;SDS011;65526;48.578;-4.520;2023-04-24T13:49:24;5.68;;;1.20;;
76631;SDS011;65526;48.578;-4.520;2023-04-24T13:51:51;4.40;;;1.48;;
76631;SDS011;65526;48.578;-4.520;2023-04-24T13:54:19;8.82;;;1.75;;
76631;SDS011;65526;48.578;-4.520;2023-04-24T13:56:46;4.18;;;1.38;;
76631;SDS011;65526;48.578;-4.520;2023-04-24T13:59:12;4.78;;;1.17;;
76631;SDS011;65526;48.578;-4.520;2023-04-24T14:01:39;6.88;;;1.35;;
76631;SDS011;65526;48.578;-4.520;2023-04-24T14:04:05;5.43;;;1.10;;
76631;SDS011;65526;48.578;-4.520;2023-04-24T14:06:31;5.82;;;1.00;;
76631;SDS011;65526;48.578;-4.520;2023-04-24T14:08:58;5.72;;;1.23;;
76631;SDS011;65526;48.578;-4.520;2023-04-24T14:11:24;7.57;;;1.50;;
76631;SDS011;65526;48.578;-4.520;2023-04-24T14:13:52;5.50;;;1.20;;
76631;SDS011;65526;48.578;-4.520;2023-04-24T14:16:21;9.45;;;2.65;;
76631;SDS011;65526;48.578;-4.520;2023-04-24T14:18:47;4.00;;;1.20;;
76631;SDS011;65526;48.578;-4.520;2023-04-24T14:21:14;8.02;;;1.40;;
76631;SDS011;65526;48.578;-4.520;2023-04-24T14:23:40;7.00;;;1.65;;
76631;SDS011;65526;48.578;-4.520;2023-04-24T14:26:07;5.55;;;1.40;;
76631;SDS011;65526;48.578;-4.520;2023-04-24T14:28:33;5.65;;;1.52;;
76631;SDS011;65526;48.578;-4.520;2023-04-24T14:31:00;7.10;;;2.40;;
76631;SDS011;65526;48.578;-4.520;2023-04-24T14:33:26;7.22;;;1.80;;
76631;SDS011;65526;48.578;-4.520;2023-04-24T14:35:53;6.90;;;1.52;;
76631;SDS011;65526;48.578;-4.520;2023-04-24T14:38:20;8.23;;;1.75;;
76631;SDS011;65526;48.578;-4.520;2023-04-24T14:40:47;5.53;;;1.92;;
76631;SDS011;65526;48.578;-4.520;2023-04-24T14:43:14;10.00;;;2.50;;
76631;SDS011;65526;48.578;-4.520;2023-04-24T14:45:40;5.95;;;1.75;;
76631;SDS011;65526;48.578;-4.520;2023-04-24T14:48:07;6.10;;;2.08;;
76631;SDS011;65526;48.578;-4.520;2023-04-24T14:50:34;10.82;;;2.25;;
76631;SDS011;65526;48.578;-4.520;2023-04-24T14:53:00;7.25;;;2.13;;
76631;SDS011;65526;48.578;-4.520;2023-04-24T14:55:27;6.15;;;1.67;;
76631;SDS011;65526;48.578;-4.520;2023-04-24T14:57:54;8.45;;;2.05;;